Upstream stations:
Downstream station:
SHEF ID: CDNT2 Canadian Rv nr Canadian, TX
STATION TYPE:
Regulating: Stage = 8.00, Flow = 5231
STAGE RIV-FLOW BAT-LOAD
ft cfs volt
Ccp-Rev Ccp-Rev Ccp-Rev
(US/Central)
05/12 00:00 1.41 63 12.41
05/12 01:00 1.41 63 12.41
05/12 02:00 1.41 63 12.41
05/12 03:00 1.42 65 12.41
05/12 04:00 1.41 63 12.33
05/12 05:00 1.40 62 12.33
05/12 06:00 1.41 63 12.33
05/12 07:00 1.38 60 12.33
05/12 08:00 1.40 62 12.33
05/12 09:00 1.38 60 12.33
05/12 10:00 1.38 60 12.49
05/12 11:00 1.39 61 12.73
05/12 12:00 1.38 60 12.89
05/12 13:00 1.39 61 12.89
05/12 14:00 1.37 58 13.05
05/12 15:00 1.37 58 13.05
05/12 16:00 1.37 58 13.05
05/12 17:00 1.35 56 12.89
05/12 18:00 1.35 56 12.65
05/12 19:00 1.35 56 12.57
05/12 20:00 1.33 53 12.49
05/12 21:00 1.34 55 12.41
05/12 22:00 1.33 53 12.41
05/12 23:00 ---- ---- ----